Time;durP1;ratioP1;P1;durP2;ratioP2;P2;SDS_P1;SDS_P2;PMS_P1;PMS_P2;Temp;Humidity;BMP_temperature;BMP_pressure;BME280_temperature;BME280_humidity;BME280_pressure;Samples;Min_cycle;Max_cycle;Signal;HPM_P1;HPM_P2
2023/10/03 00:01:43;;;;;;;27.17;13.45;;;19.30;99.90;;;;;;5051077;28;20021;-70
2023/10/03 00:04:11;;;;;;;25.08;12.95;;;19.30;99.90;;;;;;5051989;28;20019;-70
2023/10/03 00:06:38;;;;;;;30.27;15.40;;;19.30;99.90;;;;;;5050219;28;20494;-70
2023/10/03 00:09:06;;;;;;;26.95;14.60;;;19.30;99.90;;;;;;5051931;28;20045;-70
2023/10/03 00:11:33;;;;;;;28.92;15.10;;;19.30;99.90;;;;;;5049967;28;20068;-70
2023/10/03 00:14:00;;;;;;;25.17;13.43;;;19.30;99.90;;;;;;5051818;28;20027;-70
2023/10/03 00:16:26;;;;;;;25.45;14.07;;;19.30;99.90;;;;;;5051220;28;20057;-70
2023/10/03 00:18:51;;;;;;;28.83;15.73;;;19.30;99.90;;;;;;5051714;28;20037;-70
2023/10/03 00:21:18;;;;;;;27.73;14.18;;;19.30;99.90;;;;;;5051090;28;20025;-70
2023/10/03 00:23:44;;;;;;;29.02;15.15;;;19.30;99.90;;;;;;5051843;28;20120;-70
2023/10/03 00:26:15;;;;;;;25.67;13.18;;;19.30;99.90;;;;;;5051169;28;20121;-70
2023/10/03 00:28:41;;;;;;;28.15;13.80;;;19.30;99.90;;;;;;5051747;28;20021;-69
2023/10/03 00:31:11;;;;;;;28.48;14.30;;;19.30;99.90;;;;;;5050987;28;20395;-70
2023/10/03 00:33:37;;;;;;;32.20;15.35;;;19.40;99.90;;;;;;5052089;28;20025;-70
2023/10/03 00:36:03;;;;;;;27.42;14.45;;;19.40;99.90;;;;;;5051333;28;20410;-70
2023/10/03 00:38:29;;;;;;;25.52;13.63;;;19.40;99.90;;;;;;5050379;28;20024;-70
2023/10/03 00:40:55;;;;;;;26.73;13.90;;;19.40;99.90;;;;;;5050957;28;20100;-70
2023/10/03 00:43:22;;;;;;;30.15;14.57;;;19.40;99.90;;;;;;5051564;28;20020;-70
2023/10/03 00:45:51;;;;;;;28.33;14.25;;;19.40;99.90;;;;;;5051108;28;20147;-70
2023/10/03 00:48:18;;;;;;;23.35;12.23;;;19.40;99.90;;;;;;5051472;28;20422;-70
2023/10/03 00:50:44;;;;;;;28.27;14.20;;;19.40;99.90;;;;;;5050878;28;20074;-70
2023/10/03 00:53:12;;;;;;;24.05;12.10;;;19.40;99.90;;;;;;5050221;28;20031;-70
2023/10/03 00:55:40;;;;;;;30.35;15.90;;;19.50;99.90;;;;;;5050797;28;20505;-70
2023/10/03 01:00:43;;;;;;;36.60;16.90;;;19.40;99.90;;;;;;5051098;28;20056;-70
2023/10/03 01:03:31;;;;;;;32.13;17.00;;;19.40;99.90;;;;;;5051483;28;20120;-70
2023/10/03 01:06:10;;;;;;;30.30;16.20;;;19.40;99.90;;;;;;5049516;28;20594;-70
2023/10/03 01:08:46;;;;;;;33.28;17.45;;;19.30;99.90;;;;;;5051763;28;20035;-70
2023/10/03 01:11:24;;;;;;;33.78;17.05;;;19.30;99.90;;;;;;5050715;28;20558;-70
2023/10/03 01:13:56;;;;;;;30.33;14.82;;;19.30;99.90;;;;;;5054607;28;20531;-70
2023/10/03 01:16:31;;;;;;;33.60;17.27;;;19.40;99.90;;;;;;5054342;28;20100;-70
2023/10/03 01:19:13;;;;;;;35.90;17.15;;;19.40;99.90;;;;;;5054977;28;20021;-70
2023/10/03 01:21:42;;;;;;;33.22;17.10;;;19.50;99.90;;;;;;5054516;28;20481;-71
2023/10/03 01:24:20;;;;;;;31.80;16.98;;;19.50;99.90;;;;;;5054750;28;20024;-70
2023/10/03 01:26:47;;;;;;;36.40;16.67;;;19.60;99.90;;;;;;5054368;28;20033;-70
2023/10/03 01:29:13;;;;;;;30.67;16.13;;;19.60;99.90;;;;;;5054711;28;20048;-70
2023/10/03 01:31:39;;;;;;;29.15;15.20;;;19.60;99.90;;;;;;5054395;28;20480;-69
2023/10/03 01:34:05;;;;;;;34.17;17.58;;;19.60;99.90;;;;;;5054823;28;20096;-70
2023/10/03 01:36:31;;;;;;;34.05;17.35;;;19.60;99.90;;;;;;5054104;28;20578;-70
2023/10/03 01:38:57;;;;;;;33.13;16.67;;;19.70;99.90;;;;;;5054589;28;20498;-70
2023/10/03 01:41:23;;;;;;;35.45;17.25;;;19.60;99.90;;;;;;5054288;28;20021;-69
2023/10/03 01:43:49;;;;;;;28.38;14.63;;;19.70;99.90;;;;;;5054547;28;20017;-70
2023/10/03 01:46:18;;;;;;;31.40;15.65;;;19.70;99.90;;;;;;5053981;28;20086;-69
2023/10/03 01:48:43;;;;;;;30.38;15.50;;;19.70;99.90;;;;;;5054310;28;20116;-70
2023/10/03 01:51:09;;;;;;;27.63;14.82;;;19.70;99.90;;;;;;5053758;28;20530;-69
2023/10/03 01:53:36;;;;;;;32.38;15.07;;;19.70;99.90;;;;;;5054360;28;20108;-70
2023/10/03 01:56:03;;;;;;;30.83;15.60;;;19.70;99.90;;;;;;5053630;28;20021;-70
2023/10/03 01:58:30;;;;;;;28.42;15.20;;;19.70;99.90;;;;;;5054111;28;20048;-70
2023/10/03 02:00:56;;;;;;;32.42;15.82;;;19.70;99.90;;;;;;5053743;28;20025;-70
2023/10/03 02:03:22;;;;;;;32.13;15.82;;;19.70;99.90;;;;;;5054357;28;20505;-70
2023/10/03 02:05:48;;;;;;;30.42;16.13;;;19.70;99.90;;;;;;5053480;28;20032;-70
2023/10/03 02:08:17;;;;;;;30.73;15.48;;;19.70;99.90;;;;;;5054141;28;20013;-70
2023/10/03 02:10:44;;;;;;;30.77;16.15;;;19.70;99.90;;;;;;5052096;28;20052;-70
2023/10/03 02:13:17;;;;;;;28.25;14.60;;;19.70;99.90;;;;;;5053839;28;20029;-70
2023/10/03 02:15:48;;;;;;;29.95;15.88;;;19.70;99.90;;;;;;5053583;28;20027;-69
2023/10/03 02:18:17;;;;;;;29.02;15.23;;;19.70;99.90;;;;;;5053861;28;20506;-70
2023/10/03 02:20:50;;;;;;;27.77;14.07;;;19.70;99.90;;;;;;5053226;28;20040;-70
2023/10/03 02:23:19;;;;;;;29.00;15.63;;;19.70;99.90;;;;;;5052551;28;20027;-70
2023/10/03 02:25:46;;;;;;;27.25;14.10;;;19.80;99.90;;;;;;5052525;28;20555;-70
2023/10/03 02:28:14;;;;;;;32.33;14.90;;;19.80;99.90;;;;;;5053770;28;20053;-70
2023/10/03 02:30:40;;;;;;;27.05;14.32;;;19.90;99.90;;;;;;5053241;28;20025;-70
2023/10/03 02:33:10;;;;;;;28.60;14.70;;;19.90;99.90;;;;;;5053688;28;20021;-70
2023/10/03 02:35:39;;;;;;;26.38;14.43;;;20.00;99.90;;;;;;5053010;28;20104;-70
2023/10/03 02:38:05;;;;;;;28.48;14.75;;;20.00;99.90;;;;;;5053387;28;20146;-70
2023/10/03 02:40:32;;;;;;;28.95;16.17;;;20.00;99.90;;;;;;5052655;28;20040;-70
2023/10/03 02:42:59;;;;;;;31.80;14.85;;;20.10;99.90;;;;;;5053439;28;20013;-70
2023/10/03 02:45:27;;;;;;;27.27;13.70;;;20.00;99.90;;;;;;5052749;28;20472;-70
2023/10/03 02:48:08;;;;;;;26.80;14.23;;;20.10;99.90;;;;;;5052027;28;20491;-70
2023/10/03 02:50:34;;;;;;;32.17;15.97;;;20.00;99.90;;;;;;5051239;28;20517;-70
2023/10/03 02:53:05;;;;;;;24.70;13.25;;;20.00;99.90;;;;;;5053267;28;20297;-70
2023/10/03 02:55:30;;;;;;;26.88;14.98;;;20.00;99.90;;;;;;5052590;28;20025;-70
2023/10/03 02:57:56;;;;;;;29.48;14.80;;;20.00;99.90;;;;;;5053162;28;20449;-70
2023/10/03 03:00:22;;;;;;;28.42;15.30;;;20.00;99.90;;;;;;5052482;28;20019;-70
2023/10/03 03:02:48;;;;;;;25.75;13.35;;;20.00;99.90;;;;;;5053053;28;20021;-70
2023/10/03 03:05:18;;;;;;;23.88;14.10;;;20.00;99.90;;;;;;5052516;28;20483;-70
2023/10/03 03:07:48;;;;;;;25.73;14.60;;;20.00;99.90;;;;;;5052977;28;20021;-70
2023/10/03 03:10:18;;;;;;;30.63;13.70;;;20.00;99.90;;;;;;5051231;28;20113;-70
2023/10/03 03:12:47;;;;;;;25.80;14.55;;;20.00;99.90;;;;;;5052737;28;20028;-70
2023/10/03 03:15:21;;;;;;;28.50;14.07;;;20.00;99.90;;;;;;5052303;28;20025;-70
2023/10/03 03:17:50;;;;;;;26.30;13.48;;;20.10;99.90;;;;;;5052657;28;20056;-70
2023/10/03 03:20:25;;;;;;;25.98;14.27;;;20.10;99.90;;;;;;5052273;28;20014;-70
2023/10/03 03:22:52;;;;;;;25.13;12.15;;;20.10;99.90;;;;;;5052843;28;20025;-70
2023/10/03 03:25:36;;;;;;;25.05;13.10;;;20.20;99.90;;;;;;5052211;28;20044;-70
2023/10/03 03:28:02;;;;;;;24.77;13.55;;;20.20;99.90;;;;;;5051273;28;20021;-70
2023/10/03 03:32:54;;;;;;;26.55;13.95;;;20.20;99.90;;;;;;5052957;28;20033;-70
2023/10/03 03:35:23;;;;;;;24.05;12.88;;;20.20;99.90;;;;;;5052208;28;20029;-70
2023/10/03 03:37:48;;;;;;;26.13;14.07;;;20.20;99.90;;;;;;5052285;28;20025;-70
2023/10/03 03:40:29;;;;;;;27.77;13.77;;;20.20;99.90;;;;;;5051999;28;20357;-70
2023/10/03 03:42:58;;;;;;;26.45;13.93;;;20.20;99.90;;;;;;5052229;28;20472;-70
2023/10/03 03:45:26;;;;;;;28.83;15.00;;;20.20;99.90;;;;;;5052088;28;20021;-70
2023/10/03 03:47:55;;;;;;;26.80;14.65;;;20.20;99.90;;;;;;5052030;28;20021;-70
2023/10/03 03:50:23;;;;;;;27.77;14.43;;;20.20;99.90;;;;;;5051594;28;20049;-70
2023/10/03 03:52:49;;;;;;;24.52;13.68;;;20.20;99.90;;;;;;5051894;28;20025;-70
2023/10/03 03:55:17;;;;;;;28.45;14.07;;;20.20;99.90;;;;;;5051732;28;20028;-70
2023/10/03 03:57:45;;;;;;;25.45;13.63;;;20.20;99.90;;;;;;5051775;28;20028;-70
2023/10/03 04:00:22;;;;;;;26.55;14.30;;;20.20;99.90;;;;;;5051746;28;20485;-69
2023/10/03 04:02:48;;;;;;;26.85;13.55;;;20.20;99.90;;;;;;5052097;28;20113;-70
2023/10/03 04:05:17;;;;;;;21.17;12.45;;;20.20;99.90;;;;;;5051696;28;20017;-69
2023/10/03 04:07:43;;;;;;;24.00;13.02;;;20.20;99.90;;;;;;5051950;28;20074;-70
2023/10/03 04:10:10;;;;;;;22.98;11.55;;;20.20;99.90;;;;;;5051888;28;20024;-69
2023/10/03 04:12:42;;;;;;;19.83;10.40;;;20.20;99.90;;;;;;5052045;28;20021;-70
2023/10/03 04:15:12;;;;;;;20.65;10.27;;;20.20;99.90;;;;;;5051906;28;20079;-70
2023/10/03 04:17:42;;;;;;;21.35;10.88;;;20.20;99.90;;;;;;5051659;28;20491;-70
2023/10/03 04:20:27;;;;;;;23.85;12.05;;;20.30;99.90;;;;;;5051864;28;20021;-69
2023/10/03 04:22:53;;;;;;;19.58;10.15;;;20.30;99.90;;;;;;5051433;28;20021;-70
2023/10/03 04:25:20;;;;;;;20.08;11.02;;;20.30;99.90;;;;;;5051400;28;20017;-70
2023/10/03 04:27:48;;;;;;;22.75;11.05;;;20.30;99.90;;;;;;5050316;28;20079;-70
2023/10/03 04:30:14;;;;;;;20.20;10.38;;;20.30;99.90;;;;;;5050019;28;20518;-70
2023/10/03 04:32:41;;;;;;;21.05;10.70;;;20.30;99.90;;;;;;5051714;28;20072;-70
2023/10/03 04:35:11;;;;;;;21.45;10.82;;;20.30;99.90;;;;;;5051512;28;20029;-70
2023/10/03 04:37:39;;;;;;;20.35;11.15;;;20.40;99.90;;;;;;5051470;28;20048;-70
2023/10/03 04:40:06;;;;;;;21.60;9.65;;;20.30;99.90;;;;;;5051592;28;20017;-70
2023/10/03 04:42:32;;;;;;;19.00;8.98;;;20.30;99.90;;;;;;5051468;28;20028;-70
2023/10/03 04:44:58;;;;;;;18.50;9.20;;;20.30;99.90;;;;;;5050352;28;20024;-70
2023/10/03 04:47:27;;;;;;;17.48;8.88;;;20.30;99.90;;;;;;5052111;28;20021;-69
2023/10/03 04:49:58;;;;;;;14.95;7.00;;;20.30;99.90;;;;;;5055271;28;20214;-70
2023/10/03 04:52:24;;;;;;;17.63;7.90;;;20.30;99.90;;;;;;5054702;28;20043;-70
2023/10/03 04:54:50;;;;;;;13.20;7.15;;;20.30;99.90;;;;;;5055617;28;20522;-70
2023/10/03 04:57:16;;;;;;;17.88;6.55;;;20.30;99.90;;;;;;5054705;28;20036;-70
2023/10/03 04:59:42;;;;;;;16.40;6.68;;;20.30;99.90;;;;;;5055443;28;20017;-70
2023/10/03 05:02:10;;;;;;;16.00;6.32;;;20.30;99.90;;;;;;5054594;28;20467;-70
2023/10/03 05:04:35;;;;;;;15.65;5.75;;;20.30;99.90;;;;;;5053951;28;20047;-70
2023/10/03 05:07:01;;;;;;;13.30;5.28;;;20.30;99.90;;;;;;5054475;28;20017;-70
2023/10/03 05:09:32;;;;;;;12.75;4.65;;;20.20;99.90;;;;;;5055357;28;20036;-70
2023/10/03 05:11:57;;;;;;;8.57;4.28;;;20.10;99.90;;;;;;5054498;28;20027;-70
2023/10/03 05:14:23;;;;;;;11.07;4.75;;;20.10;99.90;;;;;;5053768;28;20115;-70
2023/10/03 05:16:50;;;;;;;14.20;5.35;;;20.10;99.90;;;;;;5054168;28;20104;-70
2023/10/03 05:19:17;;;;;;;12.27;4.40;;;20.00;99.90;;;;;;5053654;28;20029;-70
2023/10/03 05:21:44;;;;;;;8.98;4.30;;;20.00;99.90;;;;;;5054543;28;20021;-70
2023/10/03 05:24:14;;;;;;;11.15;4.35;;;20.00;99.90;;;;;;5054876;28;20439;-70
2023/10/03 05:26:41;;;;;;;9.93;4.18;;;20.00;99.90;;;;;;5054351;28;20021;-70
2023/10/03 05:29:07;;;;;;;13.93;4.65;;;19.90;99.90;;;;;;5055070;28;20434;-70
2023/10/03 05:31:34;;;;;;;9.73;4.18;;;19.90;99.90;;;;;;5054114;28;20066;-71
2023/10/03 05:34:00;;;;;;;10.35;4.50;;;19.80;99.90;;;;;;5054633;28;20033;-70
2023/10/03 05:36:27;;;;;;;10.98;3.80;;;19.80;99.90;;;;;;5054023;28;20089;-71
2023/10/03 05:38:52;;;;;;;10.07;4.22;;;19.80;99.90;;;;;;5054771;28;20017;-70
2023/10/03 05:41:21;;;;;;;10.52;4.05;;;19.70;99.90;;;;;;5053902;28;20047;-70
2023/10/03 05:43:48;;;;;;;11.70;3.90;;;19.70;99.90;;;;;;5053193;28;20021;-70
2023/10/03 05:46:14;;;;;;;5.28;3.22;;;19.70;99.90;;;;;;5053897;28;20415;-70
2023/10/03 05:48:40;;;;;;;9.60;3.42;;;19.70;99.90;;;;;;5052967;28;20230;-70
2023/10/03 05:51:06;;;;;;;9.50;3.83;;;19.60;99.90;;;;;;5053954;28;20021;-70
2023/10/03 05:53:33;;;;;;;7.78;3.25;;;19.60;99.90;;;;;;5054220;28;20492;-70
2023/10/03 05:55:58;;;;;;;9.02;3.55;;;19.60;99.90;;;;;;5053655;28;20032;-71
2023/10/03 05:58:24;;;;;;;11.18;4.05;;;19.60;99.90;;;;;;5053488;28;20029;-70
2023/10/03 06:00:50;;;;;;;8.25;3.63;;;19.60;99.90;;;;;;5051944;28;20259;-70
2023/10/03 06:03:16;;;;;;;9.27;4.00;;;19.60;99.90;;;;;;5053916;28;20129;-70
2023/10/03 06:05:42;;;;;;;8.48;4.07;;;19.60;99.90;;;;;;5053925;28;20425;-70
2023/10/03 06:08:12;;;;;;;9.15;4.20;;;19.60;99.90;;;;;;5054061;28;20029;-70
2023/10/03 06:10:38;;;;;;;8.25;3.63;;;19.60;99.90;;;;;;5053771;28;20025;-71
2023/10/03 06:13:07;;;;;;;9.82;3.67;;;19.60;99.90;;;;;;5053743;28;20025;-70
2023/10/03 06:15:36;;;;;;;9.57;3.78;;;19.60;99.90;;;;;;5053485;28;20045;-70
2023/10/03 06:18:02;;;;;;;7.00;3.53;;;19.50;99.90;;;;;;5053728;28;20376;-70
2023/10/03 06:20:28;;;;;;;9.77;4.00;;;19.50;99.90;;;;;;5053718;28;20021;-70
2023/10/03 06:22:54;;;;;;;8.73;4.18;;;19.50;99.90;;;;;;5052053;28;20021;-70
2023/10/03 06:25:20;;;;;;;8.57;4.07;;;19.50;99.90;;;;;;5053881;28;20017;-70
2023/10/03 06:27:45;;;;;;;7.15;3.80;;;19.50;99.90;;;;;;5051744;28;20094;-70
2023/10/03 06:30:11;;;;;;;9.90;4.20;;;19.50;99.90;;;;;;5052329;28;20075;-71
2023/10/03 06:32:37;;;;;;;9.80;4.13;;;19.50;99.90;;;;;;5052998;28;20542;-70
2023/10/03 06:35:06;;;;;;;11.27;4.88;;;19.50;99.90;;;;;;5052184;28;20111;-69
2023/10/03 06:37:35;;;;;;;7.88;3.92;;;19.50;99.90;;;;;;5052825;28;20530;-70
2023/10/03 06:40:06;;;;;;;13.52;4.50;;;19.60;99.90;;;;;;5053565;28;20028;-70
2023/10/03 06:42:35;;;;;;;8.45;4.22;;;19.60;99.90;;;;;;5052928;28;20032;-70
2023/10/03 06:45:03;;;;;;;9.68;4.28;;;19.60;99.90;;;;;;5053485;28;20024;-70
2023/10/03 06:47:29;;;;;;;8.80;4.10;;;19.60;99.90;;;;;;5052954;28;20412;-70
2023/10/03 06:49:55;;;;;;;9.10;4.15;;;19.60;99.90;;;;;;5053067;28;20522;-70
2023/10/03 06:52:21;;;;;;;11.18;4.50;;;19.60;99.90;;;;;;5052743;28;20029;-71
2023/10/03 06:54:47;;;;;;;10.35;4.45;;;19.60;99.90;;;;;;5053136;28;20021;-70
2023/10/03 06:57:13;;;;;;;10.25;4.50;;;19.60;99.90;;;;;;5052389;28;20029;-70
2023/10/03 06:59:39;;;;;;;11.52;4.38;;;19.60;99.90;;;;;;5053065;28;20112;-70
2023/10/03 07:02:05;;;;;;;14.32;4.50;;;19.60;99.90;;;;;;5051102;28;20111;-70
2023/10/03 07:04:31;;;;;;;12.90;4.93;;;19.60;99.90;;;;;;5052921;28;20460;-70
2023/10/03 07:06:57;;;;;;;12.20;5.00;;;19.60;99.90;;;;;;5052366;28;20100;-70
2023/10/03 07:09:22;;;;;;;6.70;4.07;;;19.60;99.90;;;;;;5053347;28;20025;-70
2023/10/03 07:11:48;;;;;;;11.90;4.38;;;19.60;99.90;;;;;;5052027;28;20024;-70
2023/10/03 07:14:16;;;;;;;11.18;4.85;;;19.60;99.90;;;;;;5052779;28;20025;-70
2023/10/03 07:16:42;;;;;;;8.23;4.38;;;19.70;99.90;;;;;;5050740;28;20032;-70
2023/10/03 07:19:13;;;;;;;12.00;5.13;;;19.70;99.90;;;;;;5051315;28;20115;-70
2023/10/03 07:21:39;;;;;;;9.43;5.13;;;19.70;99.90;;;;;;5052175;28;20071;-70
2023/10/03 07:24:05;;;;;;;15.07;5.20;;;19.70;99.90;;;;;;5051446;28;20014;-70
2023/10/03 07:26:32;;;;;;;10.75;5.15;;;19.70;99.90;;;;;;5051906;28;20468;-70
2023/10/03 07:28:59;;;;;;;7.15;4.05;;;19.70;99.90;;;;;;5052444;28;20458;-70
2023/10/03 07:31:25;;;;;;;8.15;5.13;;;19.70;99.90;;;;;;5051833;28;20274;-70
2023/10/03 07:33:52;;;;;;;8.85;4.65;;;19.70;99.90;;;;;;5052597;28;20021;-71
2023/10/03 07:36:18;;;;;;;11.05;5.25;;;19.70;99.90;;;;;;5050470;28;20021;-70
2023/10/03 07:38:45;;;;;;;13.35;5.00;;;19.70;99.90;;;;;;5052305;28;20018;-70
2023/10/03 07:41:13;;;;;;;9.27;4.53;;;19.70;99.90;;;;;;5052357;28;20032;-70
2023/10/03 07:43:48;;;;;;;11.27;4.18;;;19.70;99.90;;;;;;5052162;28;20021;-70
2023/10/03 07:46:23;;;;;;;12.70;4.45;;;19.60;99.90;;;;;;5050492;28;20541;-70
2023/10/03 07:48:52;;;;;;;8.65;4.05;;;19.70;99.90;;;;;;5052044;28;20095;-70
2023/10/03 07:51:19;;;;;;;7.50;3.67;;;19.60;99.90;;;;;;5051724;28;20064;-71
2023/10/03 07:53:46;;;;;;;9.65;4.55;;;19.60;99.90;;;;;;5052035;28;20075;-70
2023/10/03 07:56:42;;;;;;;9.77;4.47;;;19.60;99.90;;;;;;5051930;28;20035;-71
2023/10/03 07:59:08;;;;;;;9.40;4.43;;;19.60;99.90;;;;;;5050195;28;20415;-70
2023/10/03 08:01:38;;;;;;;6.47;3.42;;;19.50;99.90;;;;;;5051471;28;20017;-70
2023/10/03 08:04:24;;;;;;;7.95;3.35;;;19.50;99.90;;;;;;5052111;28;20514;-70
2023/10/03 08:06:49;;;;;;;4.93;2.42;;;19.50;99.90;;;;;;5051527;28;20025;-70
2023/10/03 08:09:16;;;;;;;5.82;2.35;;;19.40;99.90;;;;;;5051862;28;20545;-70
2023/10/03 08:11:46;;;;;;;5.03;2.50;;;19.30;99.90;;;;;;5050114;28;20049;-70
2023/10/03 08:14:13;;;;;;;7.28;2.92;;;19.30;99.90;;;;;;5050614;28;20055;-71
2023/10/03 08:16:43;;;;;;;5.72;2.30;;;19.30;99.90;;;;;;5051060;28;20495;-71
2023/10/03 08:19:25;;;;;;;7.45;2.75;;;19.30;99.90;;;;;;5051681;28;20116;-71
2023/10/03 08:21:55;;;;;;;8.55;2.47;;;19.30;99.90;;;;;;5050466;28;20032;-70
2023/10/03 08:24:25;;;;;;;6.00;2.22;;;19.30;99.90;;;;;;5051875;28;20029;-70
2023/10/03 08:27:01;;;;;;;6.22;2.17;;;19.20;99.90;;;;;;5049960;28;20104;-70
2023/10/03 08:29:27;;;;;;;10.70;2.47;;;19.30;99.90;;;;;;5051795;28;20028;-70
2023/10/03 08:31:57;;;;;;;9.90;2.55;;;19.30;99.90;;;;;;5051192;28;20027;-70
2023/10/03 08:34:27;;;;;;;8.35;1.90;;;19.30;99.90;;;;;;5051642;28;20067;-71
2023/10/03 08:36:54;;;;;;;7.80;1.73;;;19.30;99.90;;;;;;5050934;28;20048;-71
2023/10/03 08:39:23;;;;;;;6.43;2.00;;;19.30;99.90;;;;;;5051758;28;20017;-70
2023/10/03 08:42:12;;;;;;;6.72;1.70;;;19.20;99.90;;;;;;5050911;28;20021;-70
2023/10/03 08:44:42;;;;;;;3.63;1.63;;;19.20;99.90;;;;;;5051682;28;20502;-70
2023/10/03 08:47:14;;;;;;;4.95;2.03;;;19.10;99.90;;;;;;5051356;28;20509;-70
2023/10/03 08:49:40;;;;;;;6.53;1.80;;;19.20;99.90;;;;;;5051667;28;20120;-70
2023/10/03 08:52:06;;;;;;;5.55;1.77;;;19.10;99.90;;;;;;5050770;28;20032;-70
2023/10/03 08:54:36;;;;;;;5.85;1.80;;;19.00;99.90;;;;;;5051477;28;20424;-70
2023/10/03 08:57:04;;;;;;;6.38;1.90;;;18.90;99.90;;;;;;5049613;28;20033;-69
2023/10/03 08:59:33;;;;;;;4.85;2.05;;;18.80;99.90;;;;;;5051583;28;20079;-69
2023/10/03 09:02:09;;;;;;;4.50;1.55;;;18.80;99.90;;;;;;5050957;28;20021;-69
2023/10/03 09:04:39;;;;;;;6.15;1.92;;;18.70;99.90;;;;;;5050111;28;20032;-69
2023/10/03 09:07:11;;;;;;;6.13;1.70;;;18.60;99.90;;;;;;5050710;28;20029;-69
2023/10/03 09:09:41;;;;;;;4.65;1.75;;;18.60;99.90;;;;;;5051649;28;20029;-69
2023/10/03 09:12:08;;;;;;;3.35;1.65;;;18.50;99.90;;;;;;5050896;28;20036;-69
2023/10/03 09:14:36;;;;;;;4.40;1.63;;;18.50;99.90;;;;;;5051285;28;20491;-69
2023/10/03 09:17:05;;;;;;;5.40;1.60;;;18.50;99.90;;;;;;5050558;28;20025;-69
2023/10/03 09:19:45;;;;;;;6.32;1.25;;;18.50;99.90;;;;;;5051199;28;20017;-70
2023/10/03 09:22:15;;;;;;;5.00;1.27;;;18.40;99.90;;;;;;5050884;28;20419;-69
2023/10/03 09:24:45;;;;;;;5.53;1.40;;;18.30;99.90;;;;;;5051282;28;20360;-69
2023/10/03 09:27:20;;;;;;;3.33;1.20;;;18.30;99.90;;;;;;5050667;28;20094;-70
2023/10/03 09:29:49;;;;;;;4.00;1.25;;;18.30;99.90;;;;;;5051061;28;20025;-69
2023/10/03 09:32:19;;;;;;;3.47;1.00;;;18.20;99.90;;;;;;5049160;28;20029;-69
2023/10/03 09:34:47;;;;;;;7.72;1.45;;;18.30;99.90;;;;;;5054107;28;20020;-70
2023/10/03 09:37:13;;;;;;;4.18;1.20;;;18.30;99.90;;;;;;5054118;28;20028;-69
2023/10/03 09:39:47;;;;;;;7.07;1.55;;;18.20;99.90;;;;;;5054755;28;20383;-69
2023/10/03 09:42:17;;;;;;;5.05;1.40;;;18.30;99.90;;;;;;5052716;28;20024;-70
2023/10/03 09:44:43;;;;;;;4.45;1.35;;;18.30;99.90;;;;;;5054547;28;20013;-69
2023/10/03 09:47:12;;;;;;;3.45;1.23;;;18.40;99.90;;;;;;5053901;28;20159;-69
2023/10/03 09:49:39;;;;;;;4.10;1.20;;;18.40;99.90;;;;;;5053039;28;20044;-69
2023/10/03 09:52:09;;;;;;;4.30;1.40;;;18.50;99.90;;;;;;5053857;28;20025;-69
2023/10/03 09:54:39;;;;;;;4.07;1.65;;;18.50;99.90;;;;;;5054531;28;20107;-69
2023/10/03 09:57:28;;;;;;;2.08;0.80;;;18.50;99.90;;;;;;5053610;28;20154;-69
2023/10/03 09:59:52;;;;;;;2.92;1.10;;;18.50;99.90;;;;;;5054189;28;20052;-69
2023/10/03 10:02:33;;;;;;;5.53;1.60;;;18.50;99.90;;;;;;5053617;28;20025;-69
2023/10/03 10:05:19;;;;;;;4.45;1.00;;;18.40;99.90;;;;;;5054402;28;20048;-69
2023/10/03 10:08:09;;;;;;;5.40;1.10;;;18.40;99.90;;;;;;5053546;28;20021;-69
2023/10/03 10:10:35;;;;;;;3.93;1.13;;;18.40;99.90;;;;;;5054171;28;20498;-70
2023/10/03 10:13:24;;;;;;;3.20;1.00;;;18.40;99.90;;;;;;5053452;28;20032;-69
2023/10/03 10:16:07;;;;;;;3.70;1.17;;;18.40;99.90;;;;;;5054109;28;20166;-70
2023/10/03 10:18:45;;;;;;;4.10;1.08;;;18.30;99.90;;;;;;5053266;28;20056;-69
2023/10/03 10:21:23;;;;;;;3.42;0.90;;;18.30;99.90;;;;;;5053857;28;20021;-70
2023/10/03 10:24:14;;;;;;;3.67;0.77;;;18.40;99.90;;;;;;5053761;28;20025;-70
2023/10/03 10:26:40;;;;;;;3.78;1.10;;;18.40;99.90;;;;;;5053304;28;20453;-70
2023/10/03 10:29:09;;;;;;;5.07;1.15;;;18.50;99.90;;;;;;5053625;28;20028;-70
2023/10/03 10:31:49;;;;;;;4.15;1.00;;;18.50;99.90;;;;;;5053223;28;20475;-69
2023/10/03 10:34:18;;;;;;;3.90;1.13;;;18.60;99.90;;;;;;5052405;28;20017;-70
2023/10/03 10:37:07;;;;;;;2.78;0.80;;;18.60;99.90;;;;;;5053137;28;20029;-70
2023/10/03 10:40:09;;;;;;;5.72;1.08;;;18.60;99.90;;;;;;5052305;28;20021;-69
2023/10/03 10:42:59;;;;;;;3.60;1.10;;;18.60;99.90;;;;;;5052939;28;20070;-69
2023/10/03 10:45:37;;;;;;;3.53;1.10;;;18.60;99.90;;;;;;5051490;28;20029;-70
2023/10/03 10:48:04;;;;;;;4.15;1.10;;;18.70;99.90;;;;;;5053176;28;20029;-70
2023/10/03 10:51:01;;;;;;;5.60;1.20;;;18.70;99.90;;;;;;5053272;28;20077;-70
2023/10/03 10:53:44;;;;;;;3.67;0.85;;;18.60;99.90;;;;;;5052485;28;20032;-70
2023/10/03 10:56:11;;;;;;;3.63;0.70;;;18.60;99.90;;;;;;5051977;28;20483;-70
2023/10/03 10:58:53;;;;;;;2.95;0.95;;;18.60;99.90;;;;;;5052390;28;20103;-70
2023/10/03 11:01:20;;;;;;;;;;;18.60;99.90;;;;;;5053504;28;20092;-69
2023/10/03 11:03:47;;;;;;;3.90;1.00;;;18.60;99.90;;;;;;5052674;28;19979;-70
2023/10/03 11:06:19;;;;;;;4.22;1.25;;;18.50;99.90;;;;;;5053086;28;20021;-70
2023/10/03 11:08:50;;;;;;;2.35;1.02;;;18.50;99.90;;;;;;5052503;28;20135;-69
2023/10/03 11:11:16;;;;;;;4.88;1.23;;;18.40;99.90;;;;;;5052934;28;20031;-70
2023/10/03 11:13:46;;;;;;;3.97;1.08;;;18.50;99.90;;;;;;5052374;28;20029;-70
2023/10/03 11:16:21;;;;;;;3.13;0.90;;;18.40;99.90;;;;;;5052811;28;20029;-70
2023/10/03 11:18:47;;;;;;;2.40;0.73;;;18.40;99.90;;;;;;5052274;28;20048;-70
2023/10/03 11:21:13;;;;;;;6.22;1.27;;;18.40;99.90;;;;;;5052982;28;20514;-70
2023/10/03 11:23:38;;;;;;;3.47;1.13;;;18.40;99.90;;;;;;5050843;28;20025;-70
2023/10/03 11:26:05;;;;;;;4.75;0.95;;;18.40;99.90;;;;;;5053093;28;20373;-70
2023/10/03 11:28:44;;;;;;;6.75;1.10;;;18.40;99.90;;;;;;5051973;28;20024;-69
2023/10/03 11:31:09;;;;;;;4.18;1.00;;;18.30;99.90;;;;;;5052532;28;20021;-69
2023/10/03 11:33:42;;;;;;;4.60;1.10;;;18.30;99.90;;;;;;5050540;28;20132;-69
2023/10/03 11:36:08;;;;;;;2.38;0.75;;;18.20;99.90;;;;;;5052523;28;20490;-69
2023/10/03 11:38:50;;;;;;;3.65;1.08;;;18.00;99.90;;;;;;5051864;28;20051;-69
2023/10/03 11:41:36;;;;;;;2.75;1.00;;;17.90;99.90;;;;;;5052461;28;20027;-69
2023/10/03 11:44:02;;;;;;;4.25;1.05;;;17.80;99.90;;;;;;5051961;28;20032;-69
2023/10/03 11:46:39;;;;;;;3.85;1.20;;;17.70;99.90;;;;;;5052148;28;20021;-69
2023/10/03 11:49:08;;;;;;;3.72;0.95;;;17.70;99.90;;;;;;5051804;28;20052;-69
2023/10/03 11:51:33;;;;;;;2.45;1.30;;;17.70;99.90;;;;;;5050683;28;20021;-69
2023/10/03 11:53:59;;;;;;;3.35;1.20;;;17.60;99.90;;;;;;5051789;28;20086;-69
2023/10/03 11:56:25;;;;;;;4.60;1.38;;;17.60;99.90;;;;;;5051230;28;20502;-69
2023/10/03 11:58:52;;;;;;;4.55;1.25;;;17.60;99.90;;;;;;5051246;28;20017;-69
2023/10/03 12:01:18;;;;;;;2.33;1.17;;;17.50;99.90;;;;;;5050765;28;20036;-69
2023/10/03 12:03:43;;;;;;;4.53;1.63;;;17.50;99.90;;;;;;5050132;28;20017;-69
2023/10/03 12:06:09;;;;;;;5.18;1.60;;;17.50;99.90;;;;;;5052050;28;20116;-69
2023/10/03 12:08:40;;;;;;;5.57;1.63;;;17.50;99.90;;;;;;5051225;28;20021;-69
2023/10/03 12:11:07;;;;;;;3.55;1.05;;;17.50;99.90;;;;;;5051906;28;20029;-69
2023/10/03 12:13:32;;;;;;;6.80;1.70;;;17.40;99.90;;;;;;5051203;28;20111;-69
2023/10/03 12:15:58;;;;;;;5.55;1.90;;;17.40;99.90;;;;;;5050549;28;20186;-70
2023/10/03 12:18:26;;;;;;;4.20;1.30;;;17.30;99.90;;;;;;5051275;28;20028;-69
2023/10/03 12:20:52;;;;;;;3.92;1.25;;;17.20;99.90;;;;;;5051832;28;20092;-70
2023/10/03 12:23:18;;;;;;;4.07;1.30;;;17.20;99.90;;;;;;5051154;28;20163;-70
2023/10/03 12:25:45;;;;;;;6.38;1.40;;;17.20;99.90;;;;;;5051702;28;20527;-70
2023/10/03 12:28:10;;;;;;;6.10;1.80;;;17.20;99.90;;;;;;5051063;28;20112;-70
2023/10/03 12:30:36;;;;;;;5.53;1.70;;;17.20;99.90;;;;;;5051532;28;20064;-70
2023/10/03 12:33:02;;;;;;;7.80;1.77;;;17.10;99.90;;;;;;5051097;28;20093;-70
2023/10/03 12:35:28;;;;;;;5.70;1.83;;;17.10;99.90;;;;;;5051682;28;20194;-70
2023/10/03 12:37:58;;;;;;;6.68;1.90;;;17.10;99.90;;;;;;5049877;28;20028;-70
2023/10/03 12:40:27;;;;;;;6.38;1.92;;;17.00;99.90;;;;;;5051594;28;20502;-70
2023/10/03 12:42:53;;;;;;;8.98;2.08;;;17.00;99.90;;;;;;5051207;28;20029;-71
2023/10/03 12:45:22;;;;;;;9.90;1.80;;;17.00;99.90;;;;;;5051554;28;20021;-70
2023/10/03 12:47:53;;;;;;;8.35;2.17;;;17.00;99.90;;;;;;5049547;28;20502;-70
2023/10/03 12:50:23;;;;;;;6.53;1.98;;;17.00;99.90;;;;;;5051499;28;20067;-70
2023/10/03 12:52:57;;;;;;;8.48;2.08;;;17.00;99.90;;;;;;5051360;28;20021;-69
2023/10/03 12:55:27;;;;;;;6.15;2.08;;;16.90;99.90;;;;;;5050277;28;20025;-70